x

South Santa Rosa Is. Ca (46069) Wave Buoy

5:50pm - Fri 21st Jul 2017 All times are PDT. -7 hours from GMT.

  • Sig Wave height 7.2ft
  • Swell Direction
  • Peak Period 8s
  • Average Period 6s
  • Wind
    25mph, 29mph gusts
  • Sea Temp 63°f
  • Air Temp 60°f
  • Sea Pressure 1012.6mb
  • South Santa Rosa Is. Ca
  • South Santa Rosa Is. Ca

More Historic Weather Station data

Upgrade to MSW Pro to gain access to the past 30 days of data for over 8000 Wavebouys and Weather Stations around the globe.

Join Pro

Comparision Forecast

View Surf forecast
   
Fri 07/21 5:50pm 7ft 8s 6s 25 29 mph 1012.6mb 63f 60f
4:50pm 7ft 8s 6s 25 29 mph 1013.3mb 63f 60f
3:50pm 6.5ft 8s 6s 22 29 mph 1014mb 63f 59f
2:50pm 7ft 8s 6s 20 25 mph 1014.6mb 63f 59f
1:50pm 6.5ft 8s 6s 18 22 mph 1015.2mb 63f 58f
12:50pm 7ft 8s 6s 18 22 mph 1015.8mb 63f 58f
11:50am 6.5ft 8s 7s 20 22 mph 1015.8mb 63f 58f
10:50am 7ft 8s 6s 20 25 mph 1015.6mb 63f 58f
9:50am 7ft 8s 6s 20 22 mph 1015.3mb 63f 58f
8:50am 6ft 7s 6s 20 22 mph 1015mb 63f 58f
7:50am 7ft 8s 6s 22 25 mph 1014.5mb 63f 59f
6:50am 7ft 8s 6s 22 27 mph 1014mb 63f 59f
5:50am 7ft 8s 6s 22 27 mph 1013.6mb 63f 59f
4:50am 7ft 8s 6s 25 27 mph 1013.2mb 63f 59f
3:50am 7ft 8s 6s 25 29 mph 1013.1mb 63f 59f
2:50am 8ft 8s 6s 25 29 mph 1013.4mb 64f 59f
1:50am 7.5ft 8s 6s 25 29 mph 1013.6mb 65f 60f
12:50am 7.5ft 8s 6s 25 31 mph 1013.7mb 64f 60f
Thu 07/20 11:50pm 8.5ft 8s 6s 25 31 mph 1013.9mb 62f 60f
10:50pm 8.5ft 8s 6s 27 31 mph 1013.9mb 63f 60f
9:50pm 8ft 8s 6s 27 34 mph 1013.9mb 64f 60f
8:50pm 8.5ft 8s 6s 27 31 mph 1014mb 64f 59f
7:50pm 7.5ft 8s 6s 29 34 mph 1014.1mb 64f 58f
6:50pm 7.5ft 8s 6s 27 31 mph 1014.1mb 64f 59f
5:50pm 7ft 8s 6s 27 29 mph 1014.2mb 64f 59f
4:50pm 7.5ft 8s 6s 25 29 mph 1014.8mb 64f 59f
3:50pm 8ft 8s 7s 22 27 mph 1015.5mb 64f 59f
2:50pm 7ft 8s 6s 20 25 mph 1016.1mb 64f 59f
1:50pm 8ft 8s 7s 20 25 mph 1016.6mb 64f 59f
12:50pm 8ft 9s 7s 18 22 mph 1017.1mb 64f 58f
11:50am 8ft 9s 7s 16 20 mph 1017.4mb 64f 58f
10:50am 8ft 8s 7s 16 20 mph 1017.5mb 64f 58f
9:50am 8ft 8s 7s 18 20 mph 1017.3mb 64f 58f
8:50am 8.5ft 9s 7s 20 22 mph 1016.5mb 64f 58f
7:50am 8ft 8s 7s 22 25 mph 1016.3mb 64f 58f
6:50am 8.5ft 8s 6s 22 27 mph 1015.8mb 63f 58f
5:50am 8.5ft 8s 6s 25 29 mph 1015.3mb 63f 58f
4:50am 8ft 8s 6s 25 29 mph 1014.9mb 64f 58f
3:50am 8ft 8s 6s 25 31 mph 1014.8mb 64f 58f
2:50am 8ft 8s 6s 27 34 mph 1014.4mb 65f 59f
1:50am 8ft 8s 6s 27 34 mph 1014.5mb 65f 59f
12:50am 8ft 8s 6s 25 31 mph 1015mb 65f 60f
Wed 07/19 11:50pm 8ft 8s 6s 25 31 mph 1015.1mb 66f 60f
10:50pm 8ft 8s 6s 25 29 mph 1014.9mb 66f 61f
9:50pm 9ft 8s 6s 22 27 mph 1015mb 65f 61f
8:50pm 8ft 8s 6s 22 27 mph 1014.5mb 64f 60f
7:50pm 7.5ft 7s 6s 25 29 mph 1013.7mb 64f 60f
6:50pm 7.5ft 8s 6s 25 29 mph 1013.5mb 64f 60f
5:50pm 6.5ft 8s 6s 25 29 mph 1013.6mb 65f 60f
4:50pm 7ft 8s 6s 22 25 mph 1014.2mb 66f 60f
3:50pm 7ft 8s 6s 22 27 mph 1014.7mb 66f 60f
1:50pm 7ft 8s 7s 18 20 mph 1015.8mb 67f 60f
12:50pm 7ft 8s 7s 13 16 mph 1016.6mb 67f 60f
11:50am 7ft 8s 7s 13 16 mph 1016.4mb 66f 60f
10:50am 7.5ft 8s 7s 13 16 mph 1016.3mb 66f 60f
9:50am 7ft 8s 7s 11 13 mph 1016.2mb 67f 61f
8:50am 7ft 9s 7s 13 16 mph 1015.5mb 66f 60f
7:50am 7.5ft 8s 7s 16 18 mph 1015.1mb 66f 60f
6:50am 8ft 9s 7s 18 22 mph 1014.7mb 66f 60f
5:50am 7.5ft 9s 7s 18 22 mph 1014.5mb 66f 61f
4:50am 8ft 9s 7s 18 22 mph 1013.6mb 66f 61f
3:50am 7.5ft 10s 7s 18 20 mph 1013.3mb 67f 62f
2:50am 8ft 9s 7s 16 18 mph 1013.5mb 66f 63f
1:50am 8ft 9s 7s 18 22 mph 1013.5mb 66f 62f
12:50am 8ft 9s 7s 18 20 mph 1013.8mb 66f 63f
Tue 07/18 11:50pm 7ft 8s 7s 20 25 mph 1013.8mb 67f 64f
10:50pm 7.5ft 9s 7s 20 25 mph 1013.7mb 67f 64f
9:50pm 7ft 9s 7s 18 20 mph 1013.7mb 67f 63f
8:50pm 6.5ft 8s 6s 18 22 mph 1013.3mb 68f 63f
7:50pm 7.5ft 9s 7s 18 22 mph 1012.8mb 69f 63f
6:50pm 6.5ft 9s 7s 20 25 mph 1012.5mb 69f 63f
5:50pm 6ft 9s 7s 16 18 mph 1013.1mb 69f 62f
4:50pm 6ft 8s 7s 18 20 mph 1013.4mb 69f 61f
3:50pm 6.5ft 9s 7s 13 16 mph 1014.1mb 69f 62f
2:50pm 6.5ft 9s 7s 11 16 mph 1014.6mb 69f 64f
1:50pm 7ft 9s 8s 9 13 mph 1015.1mb 70f 64f
12:50pm 6.5ft 9s 7s 9 11 mph 1015.3mb 69f 64f
11:50am 7ft 9s 8s 7 9 mph 1015.4mb 69f 63f
10:50am 7ft 8s 8s 4 7 mph 1015.3mb 69f 62f
9:50am 7ft 9s 8s 4 7 mph 1014.9mb 69f 62f
8:50am 7ft 9s 8s 7 9 mph 1014.6mb 69f 62f
7:50am 7ft 10s 8s 7 9 mph 1014.1mb 69f 62f
6:50am 6.5ft 10s 8s 4 7 mph 1013.6mb 69f 63f
5:50am 5.5ft 9s 7s 2 4 mph 1013.3mb 68f 62f
4:50am 6ft 11s 8s 2 4 mph 1013mb 68f 60f
3:50am 6ft 10s 8s 4 7 mph 1012.6mb 67f 60f
2:50am 6ft 9s 8s 2 4 mph 1012.6mb 67f 60f
1:50am 6ft 10s 8s 2 4 mph 1012.9mb 66f 61f